sensor_id;sensor_type;location;lat;lon;timestamp;P1;durP1;ratioP1;P2;durP2;ratioP2
77722;SDS011;67811;42.656;23.394;2023-04-25T00:00:06;4.85;;;2.83;;
77722;SDS011;67811;42.656;23.394;2023-04-25T00:02:32;6.63;;;2.70;;
77722;SDS011;67811;42.656;23.394;2023-04-25T00:04:58;3.42;;;2.28;;
77722;SDS011;67811;42.656;23.394;2023-04-25T00:07:24;4.28;;;2.97;;
77722;SDS011;67811;42.656;23.394;2023-04-25T00:09:50;3.78;;;2.42;;
77722;SDS011;67811;42.656;23.394;2023-04-25T00:12:15;2.35;;;1.13;;
77722;SDS011;67811;42.656;23.394;2023-04-25T00:14:41;4.10;;;2.95;;
77722;SDS011;67811;42.656;23.394;2023-04-25T00:17:06;3.22;;;2.90;;
77722;SDS011;67811;42.656;23.394;2023-04-25T00:19:31;3.17;;;2.15;;
77722;SDS011;67811;42.656;23.394;2023-04-25T00:21:57;4.75;;;2.95;;
77722;SDS011;67811;42.656;23.394;2023-04-25T00:24:22;3.97;;;3.03;;
77722;SDS011;67811;42.656;23.394;2023-04-25T00:26:47;3.45;;;2.50;;
77722;SDS011;67811;42.656;23.394;2023-04-25T00:29:13;4.55;;;3.15;;
77722;SDS011;67811;42.656;23.394;2023-04-25T00:31:38;4.85;;;3.80;;
77722;SDS011;67811;42.656;23.394;2023-04-25T00:34:03;4.85;;;2.72;;
77722;SDS011;67811;42.656;23.394;2023-04-25T00:36:28;3.33;;;2.72;;
77722;SDS011;67811;42.656;23.394;2023-04-25T00:38:54;4.47;;;2.42;;
77722;SDS011;67811;42.656;23.394;2023-04-25T00:41:19;4.38;;;2.92;;
77722;SDS011;67811;42.656;23.394;2023-04-25T00:43:44;5.20;;;2.50;;
77722;SDS011;67811;42.656;23.394;2023-04-25T00:46:12;1.73;;;1.58;;
77722;SDS011;67811;42.656;23.394;2023-04-25T00:48:37;3.15;;;2.30;;
77722;SDS011;67811;42.656;23.394;2023-04-25T00:51:02;3.83;;;2.63;;
77722;SDS011;67811;42.656;23.394;2023-04-25T00:53:28;3.55;;;2.45;;
77722;SDS011;67811;42.656;23.394;2023-04-25T00:55:55;3.13;;;2.22;;
77722;SDS011;67811;42.656;23.394;2023-04-25T00:58:20;2.95;;;2.03;;
77722;SDS011;67811;42.656;23.394;2023-04-25T01:00:47;3.35;;;2.13;;
77722;SDS011;67811;42.656;23.394;2023-04-25T01:03:14;4.65;;;3.20;;
77722;SDS011;67811;42.656;23.394;2023-04-25T01:05:40;4.93;;;2.70;;
77722;SDS011;67811;42.656;23.394;2023-04-25T01:08:07;3.40;;;2.80;;
77722;SDS011;67811;42.656;23.394;2023-04-25T01:10:32;4.35;;;2.30;;
77722;SDS011;67811;42.656;23.394;2023-04-25T01:12:57;4.05;;;2.03;;
77722;SDS011;67811;42.656;23.394;2023-04-25T01:15:23;4.65;;;2.22;;
77722;SDS011;67811;42.656;23.394;2023-04-25T01:17:48;5.95;;;3.20;;
77722;SDS011;67811;42.656;23.394;2023-04-25T01:20:14;2.85;;;2.22;;
77722;SDS011;67811;42.656;23.394;2023-04-25T01:22:39;4.10;;;2.00;;
77722;SDS011;67811;42.656;23.394;2023-04-25T01:25:04;7.72;;;3.28;;
77722;SDS011;67811;42.656;23.394;2023-04-25T01:27:31;3.83;;;2.58;;
77722;SDS011;67811;42.656;23.394;2023-04-25T01:29:57;3.90;;;2.33;;
77722;SDS011;67811;42.656;23.394;2023-04-25T01:32:23;4.32;;;2.50;;
77722;SDS011;67811;42.656;23.394;2023-04-25T01:34:49;3.17;;;2.63;;
77722;SDS011;67811;42.656;23.394;2023-04-25T01:37:14;4.88;;;3.08;;
77722;SDS011;67811;42.656;23.394;2023-04-25T01:39:41;3.85;;;2.80;;
77722;SDS011;67811;42.656;23.394;2023-04-25T01:42:06;4.82;;;2.72;;
77722;SDS011;67811;42.656;23.394;2023-04-25T01:44:32;3.67;;;2.63;;
77722;SDS011;67811;42.656;23.394;2023-04-25T01:46:57;5.25;;;3.00;;
77722;SDS011;67811;42.656;23.394;2023-04-25T01:49:22;5.88;;;3.05;;
77722;SDS011;67811;42.656;23.394;2023-04-25T01:51:48;4.43;;;2.42;;
77722;SDS011;67811;42.656;23.394;2023-04-25T01:54:13;3.05;;;2.67;;
77722;SDS011;67811;42.656;23.394;2023-04-25T01:56:39;5.78;;;3.75;;
77722;SDS011;67811;42.656;23.394;2023-04-25T01:59:04;4.07;;;2.88;;
77722;SDS011;67811;42.656;23.394;2023-04-25T02:01:30;4.75;;;3.05;;
77722;SDS011;67811;42.656;23.394;2023-04-25T02:03:56;5.13;;;3.28;;
77722;SDS011;67811;42.656;23.394;2023-04-25T02:06:21;7.43;;;3.88;;
77722;SDS011;67811;42.656;23.394;2023-04-25T02:08:47;5.88;;;3.08;;
77722;SDS011;67811;42.656;23.394;2023-04-25T02:11:12;4.63;;;3.13;;
77722;SDS011;67811;42.656;23.394;2023-04-25T02:13:37;4.90;;;2.60;;
77722;SDS011;67811;42.656;23.394;2023-04-25T02:16:03;6.68;;;3.47;;
77722;SDS011;67811;42.656;23.394;2023-04-25T02:18:28;7.65;;;3.40;;
77722;SDS011;67811;42.656;23.394;2023-04-25T02:20:54;4.82;;;3.03;;
77722;SDS011;67811;42.656;23.394;2023-04-25T02:23:19;3.63;;;3.20;;
77722;SDS011;67811;42.656;23.394;2023-04-25T02:25:45;5.07;;;2.53;;
77722;SDS011;67811;42.656;23.394;2023-04-25T02:28:10;3.90;;;3.17;;
77722;SDS011;67811;42.656;23.394;2023-04-25T02:30:35;5.85;;;3.58;;
77722;SDS011;67811;42.656;23.394;2023-04-25T02:33:01;6.60;;;3.50;;
77722;SDS011;67811;42.656;23.394;2023-04-25T02:35:26;3.78;;;2.85;;
77722;SDS011;67811;42.656;23.394;2023-04-25T02:37:51;3.72;;;2.67;;
77722;SDS011;67811;42.656;23.394;2023-04-25T02:40:17;5.07;;;3.38;;
77722;SDS011;67811;42.656;23.394;2023-04-25T02:42:42;3.83;;;2.58;;
77722;SDS011;67811;42.656;23.394;2023-04-25T02:45:08;6.05;;;3.42;;
77722;SDS011;67811;42.656;23.394;2023-04-25T02:47:33;5.55;;;3.70;;
77722;SDS011;67811;42.656;23.394;2023-04-25T02:49:59;4.97;;;2.47;;
77722;SDS011;67811;42.656;23.394;2023-04-25T02:52:24;4.53;;;2.80;;
77722;SDS011;67811;42.656;23.394;2023-04-25T02:54:49;3.83;;;3.30;;
77722;SDS011;67811;42.656;23.394;2023-04-25T02:57:15;3.75;;;2.75;;
77722;SDS011;67811;42.656;23.394;2023-04-25T02:59:40;4.40;;;3.40;;
77722;SDS011;67811;42.656;23.394;2023-04-25T03:02:05;6.75;;;3.38;;
77722;SDS011;67811;42.656;23.394;2023-04-25T03:04:30;4.75;;;3.25;;
77722;SDS011;67811;42.656;23.394;2023-04-25T03:06:56;5.45;;;3.72;;
77722;SDS011;67811;42.656;23.394;2023-04-25T03:09:21;5.85;;;4.32;;
77722;SDS011;67811;42.656;23.394;2023-04-25T03:11:46;5.72;;;3.47;;
77722;SDS011;67811;42.656;23.394;2023-04-25T03:14:12;7.72;;;3.80;;
77722;SDS011;67811;42.656;23.394;2023-04-25T03:16:38;6.40;;;4.18;;
77722;SDS011;67811;42.656;23.394;2023-04-25T03:19:04;5.35;;;3.83;;
77722;SDS011;67811;42.656;23.394;2023-04-25T03:21:30;8.95;;;3.97;;
77722;SDS011;67811;42.656;23.394;2023-04-25T03:23:56;4.72;;;3.83;;
77722;SDS011;67811;42.656;23.394;2023-04-25T03:26:22;5.68;;;4.10;;
77722;SDS011;67811;42.656;23.394;2023-04-25T03:28:47;8.05;;;4.70;;
77722;SDS011;67811;42.656;23.394;2023-04-25T03:31:12;5.72;;;4.13;;
77722;SDS011;67811;42.656;23.394;2023-04-25T03:33:37;6.32;;;4.30;;
77722;SDS011;67811;42.656;23.394;2023-04-25T03:36:03;5.85;;;4.07;;
77722;SDS011;67811;42.656;23.394;2023-04-25T03:38:28;5.43;;;3.83;;
77722;SDS011;67811;42.656;23.394;2023-04-25T03:40:54;6.57;;;4.47;;
77722;SDS011;67811;42.656;23.394;2023-04-25T03:43:19;8.95;;;5.40;;
77722;SDS011;67811;42.656;23.394;2023-04-25T03:45:45;5.10;;;3.10;;
77722;SDS011;67811;42.656;23.394;2023-04-25T03:48:10;8.77;;;5.25;;
77722;SDS011;67811;42.656;23.394;2023-04-25T03:50:36;7.82;;;5.13;;
77722;SDS011;67811;42.656;23.394;2023-04-25T03:53:01;7.00;;;5.07;;
77722;SDS011;67811;42.656;23.394;2023-04-25T03:55:26;8.63;;;5.43;;
77722;SDS011;67811;42.656;23.394;2023-04-25T03:57:52;7.35;;;5.30;;
77722;SDS011;67811;42.656;23.394;2023-04-25T04:00:17;7.85;;;5.78;;
77722;SDS011;67811;42.656;23.394;2023-04-25T04:02:42;9.65;;;4.93;;
77722;SDS011;67811;42.656;23.394;2023-04-25T04:05:08;9.10;;;4.80;;
77722;SDS011;67811;42.656;23.394;2023-04-25T04:07:33;6.85;;;5.13;;
77722;SDS011;67811;42.656;23.394;2023-04-25T04:09:59;9.10;;;5.65;;
77722;SDS011;67811;42.656;23.394;2023-04-25T04:12:24;8.68;;;4.65;;
77722;SDS011;67811;42.656;23.394;2023-04-25T04:14:49;8.15;;;5.13;;
77722;SDS011;67811;42.656;23.394;2023-04-25T04:17:15;7.82;;;5.22;;
77722;SDS011;67811;42.656;23.394;2023-04-25T04:19:40;7.63;;;5.10;;
77722;SDS011;67811;42.656;23.394;2023-04-25T04:22:06;9.68;;;5.00;;
77722;SDS011;67811;42.656;23.394;2023-04-25T04:24:31;7.10;;;4.85;;
77722;SDS011;67811;42.656;23.394;2023-04-25T04:26:57;7.20;;;4.32;;
77722;SDS011;67811;42.656;23.394;2023-04-25T04:29:22;8.73;;;5.07;;
77722;SDS011;67811;42.656;23.394;2023-04-25T04:31:48;8.23;;;5.63;;
77722;SDS011;67811;42.656;23.394;2023-04-25T04:34:14;8.05;;;5.30;;
77722;SDS011;67811;42.656;23.394;2023-04-25T04:36:39;6.18;;;4.95;;
77722;SDS011;67811;42.656;23.394;2023-04-25T04:39:05;6.15;;;4.38;;
77722;SDS011;67811;42.656;23.394;2023-04-25T04:41:31;6.03;;;4.03;;
77722;SDS011;67811;42.656;23.394;2023-04-25T04:43:56;6.55;;;3.63;;
77722;SDS011;67811;42.656;23.394;2023-04-25T04:46:21;5.05;;;3.80;;
77722;SDS011;67811;42.656;23.394;2023-04-25T04:48:46;5.63;;;4.07;;
77722;SDS011;67811;42.656;23.394;2023-04-25T04:51:12;9.68;;;4.32;;
77722;SDS011;67811;42.656;23.394;2023-04-25T04:53:37;5.55;;;3.80;;
77722;SDS011;67811;42.656;23.394;2023-04-25T04:56:02;3.60;;;3.10;;
77722;SDS011;67811;42.656;23.394;2023-04-25T04:58:28;8.57;;;3.80;;
77722;SDS011;67811;42.656;23.394;2023-04-25T05:00:53;5.95;;;3.85;;
77722;SDS011;67811;42.656;23.394;2023-04-25T05:03:18;4.78;;;3.53;;
77722;SDS011;67811;42.656;23.394;2023-04-25T05:05:44;5.68;;;3.00;;
77722;SDS011;67811;42.656;23.394;2023-04-25T05:08:09;6.47;;;4.45;;
77722;SDS011;67811;42.656;23.394;2023-04-25T05:10:34;7.25;;;5.07;;
77722;SDS011;67811;42.656;23.394;2023-04-25T05:13:00;9.30;;;5.95;;
77722;SDS011;67811;42.656;23.394;2023-04-25T05:15:25;6.28;;;4.05;;
77722;SDS011;67811;42.656;23.394;2023-04-25T05:17:50;8.57;;;5.45;;
77722;SDS011;67811;42.656;23.394;2023-04-25T05:20:16;7.18;;;5.07;;
77722;SDS011;67811;42.656;23.394;2023-04-25T05:22:41;7.63;;;5.38;;
77722;SDS011;67811;42.656;23.394;2023-04-25T05:25:06;8.13;;;5.43;;
77722;SDS011;67811;42.656;23.394;2023-04-25T05:27:33;7.53;;;4.90;;
77722;SDS011;67811;42.656;23.394;2023-04-25T05:29:58;19.60;;;6.45;;
77722;SDS011;67811;42.656;23.394;2023-04-25T05:32:23;10.57;;;6.00;;
77722;SDS011;67811;42.656;23.394;2023-04-25T05:34:49;11.82;;;5.63;;
77722;SDS011;67811;42.656;23.394;2023-04-25T05:37:14;8.82;;;5.65;;
77722;SDS011;67811;42.656;23.394;2023-04-25T05:39:39;8.90;;;5.63;;
77722;SDS011;67811;42.656;23.394;2023-04-25T05:42:05;7.07;;;4.75;;
77722;SDS011;67811;42.656;23.394;2023-04-25T05:44:30;6.53;;;4.35;;
77722;SDS011;67811;42.656;23.394;2023-04-25T05:46:55;8.05;;;5.35;;
77722;SDS011;67811;42.656;23.394;2023-04-25T05:49:20;8.60;;;5.25;;
77722;SDS011;67811;42.656;23.394;2023-04-25T05:51:46;7.80;;;4.95;;
77722;SDS011;67811;42.656;23.394;2023-04-25T05:54:11;7.43;;;5.20;;
77722;SDS011;67811;42.656;23.394;2023-04-25T05:56:36;9.00;;;5.72;;
77722;SDS011;67811;42.656;23.394;2023-04-25T05:59:02;12.07;;;6.35;;
77722;SDS011;67811;42.656;23.394;2023-04-25T06:01:27;10.77;;;5.28;;
77722;SDS011;67811;42.656;23.394;2023-04-25T06:03:52;8.15;;;5.18;;
77722;SDS011;67811;42.656;23.394;2023-04-25T06:06:18;9.95;;;5.65;;
77722;SDS011;67811;42.656;23.394;2023-04-25T06:08:43;7.47;;;5.63;;
77722;SDS011;67811;42.656;23.394;2023-04-25T06:11:09;8.18;;;5.32;;
77722;SDS011;67811;42.656;23.394;2023-04-25T06:13:34;9.30;;;5.38;;
77722;SDS011;67811;42.656;23.394;2023-04-25T06:15:59;6.93;;;4.40;;
77722;SDS011;67811;42.656;23.394;2023-04-25T06:18:25;6.55;;;3.70;;
77722;SDS011;67811;42.656;23.394;2023-04-25T06:20:50;6.85;;;4.28;;
77722;SDS011;67811;42.656;23.394;2023-04-25T06:23:16;5.38;;;3.50;;
77722;SDS011;67811;42.656;23.394;2023-04-25T06:25:41;6.70;;;4.60;;
77722;SDS011;67811;42.656;23.394;2023-04-25T06:28:06;5.20;;;4.15;;
77722;SDS011;67811;42.656;23.394;2023-04-25T06:30:32;6.20;;;4.80;;
77722;SDS011;67811;42.656;23.394;2023-04-25T06:32:57;5.90;;;4.25;;
77722;SDS011;67811;42.656;23.394;2023-04-25T06:35:22;9.65;;;4.88;;
77722;SDS011;67811;42.656;23.394;2023-04-25T06:37:48;8.45;;;4.95;;
77722;SDS011;67811;42.656;23.394;2023-04-25T06:40:13;4.18;;;3.40;;
77722;SDS011;67811;42.656;23.394;2023-04-25T06:42:38;6.65;;;5.30;;
77722;SDS011;67811;42.656;23.394;2023-04-25T06:45:04;7.82;;;4.60;;
77722;SDS011;67811;42.656;23.394;2023-04-25T06:47:29;9.88;;;5.18;;
77722;SDS011;67811;42.656;23.394;2023-04-25T06:49:55;6.30;;;4.13;;
77722;SDS011;67811;42.656;23.394;2023-04-25T06:52:20;6.07;;;3.80;;
77722;SDS011;67811;42.656;23.394;2023-04-25T06:54:46;6.82;;;4.53;;
77722;SDS011;67811;42.656;23.394;2023-04-25T06:57:11;5.78;;;4.05;;
77722;SDS011;67811;42.656;23.394;2023-04-25T06:59:36;11.43;;;5.45;;
77722;SDS011;67811;42.656;23.394;2023-04-25T07:02:02;7.03;;;3.88;;
77722;SDS011;67811;42.656;23.394;2023-04-25T07:04:27;6.60;;;4.18;;
77722;SDS011;67811;42.656;23.394;2023-04-25T07:06:52;7.55;;;4.05;;
77722;SDS011;67811;42.656;23.394;2023-04-25T07:09:18;4.93;;;4.20;;
77722;SDS011;67811;42.656;23.394;2023-04-25T07:11:43;6.68;;;3.92;;
77722;SDS011;67811;42.656;23.394;2023-04-25T07:14:08;8.80;;;4.03;;
77722;SDS011;67811;42.656;23.394;2023-04-25T07:16:33;11.18;;;3.85;;
77722;SDS011;67811;42.656;23.394;2023-04-25T07:18:59;7.22;;;4.05;;
77722;SDS011;67811;42.656;23.394;2023-04-25T07:21:24;6.55;;;3.55;;
77722;SDS011;67811;42.656;23.394;2023-04-25T07:23:50;5.03;;;3.22;;
77722;SDS011;67811;42.656;23.394;2023-04-25T07:26:15;4.88;;;3.08;;
77722;SDS011;67811;42.656;23.394;2023-04-25T07:28:40;5.53;;;4.28;;
77722;SDS011;67811;42.656;23.394;2023-04-25T07:31:05;5.32;;;3.75;;
77722;SDS011;67811;42.656;23.394;2023-04-25T07:33:31;7.32;;;4.07;;
77722;SDS011;67811;42.656;23.394;2023-04-25T07:35:56;6.68;;;4.53;;
77722;SDS011;67811;42.656;23.394;2023-04-25T07:38:22;8.55;;;4.47;;
77722;SDS011;67811;42.656;23.394;2023-04-25T07:40:47;7.43;;;3.80;;
77722;SDS011;67811;42.656;23.394;2023-04-25T07:43:13;6.55;;;4.20;;
77722;SDS011;67811;42.656;23.394;2023-04-25T07:45:39;6.15;;;4.53;;
77722;SDS011;67811;42.656;23.394;2023-04-25T07:48:04;5.38;;;3.90;;
77722;SDS011;67811;42.656;23.394;2023-04-25T07:50:30;9.48;;;4.05;;
77722;SDS011;67811;42.656;23.394;2023-04-25T07:52:55;7.55;;;4.30;;
77722;SDS011;67811;42.656;23.394;2023-04-25T07:55:20;5.13;;;3.63;;
77722;SDS011;67811;42.656;23.394;2023-04-25T07:57:45;6.15;;;3.75;;
77722;SDS011;67811;42.656;23.394;2023-04-25T08:00:11;11.20;;;4.15;;
77722;SDS011;67811;42.656;23.394;2023-04-25T08:02:37;10.18;;;3.75;;
77722;SDS011;67811;42.656;23.394;2023-04-25T08:05:02;7.43;;;4.95;;
77722;SDS011;67811;42.656;23.394;2023-04-25T08:07:28;14.32;;;5.03;;
77722;SDS011;67811;42.656;23.394;2023-04-25T08:09:53;24.05;;;5.85;;
77722;SDS011;67811;42.656;23.394;2023-04-25T08:12:19;7.07;;;4.05;;
77722;SDS011;67811;42.656;23.394;2023-04-25T08:14:44;4.82;;;2.85;;
77722;SDS011;67811;42.656;23.394;2023-04-25T08:17:10;4.30;;;3.63;;
77722;SDS011;67811;42.656;23.394;2023-04-25T08:19:35;6.82;;;4.38;;
77722;SDS011;67811;42.656;23.394;2023-04-25T08:22:00;4.88;;;3.47;;
77722;SDS011;67811;42.656;23.394;2023-04-25T08:24:26;6.57;;;4.03;;
77722;SDS011;67811;42.656;23.394;2023-04-25T08:26:51;7.20;;;4.90;;
77722;SDS011;67811;42.656;23.394;2023-04-25T08:29:16;9.07;;;5.05;;
77722;SDS011;67811;42.656;23.394;2023-04-25T08:31:42;7.82;;;4.30;;
77722;SDS011;67811;42.656;23.394;2023-04-25T08:34:07;7.53;;;3.75;;
77722;SDS011;67811;42.656;23.394;2023-04-25T08:36:32;8.27;;;3.95;;
77722;SDS011;67811;42.656;23.394;2023-04-25T08:38:58;5.75;;;3.28;;
77722;SDS011;67811;42.656;23.394;2023-04-25T08:41:23;6.30;;;2.88;;
77722;SDS011;67811;42.656;23.394;2023-04-25T08:43:49;5.13;;;3.30;;
77722;SDS011;67811;42.656;23.394;2023-04-25T08:46:16;6.15;;;2.78;;
77722;SDS011;67811;42.656;23.394;2023-04-25T08:48:43;5.90;;;3.63;;
77722;SDS011;67811;42.656;23.394;2023-04-25T08:51:13;7.50;;;3.67;;
77722;SDS011;67811;42.656;23.394;2023-04-25T08:53:46;6.18;;;3.95;;
77722;SDS011;67811;42.656;23.394;2023-04-25T08:56:15;4.82;;;2.60;;
77722;SDS011;67811;42.656;23.394;2023-04-25T08:58:41;4.55;;;2.83;;
77722;SDS011;67811;42.656;23.394;2023-04-25T09:01:07;7.55;;;3.40;;
77722;SDS011;67811;42.656;23.394;2023-04-25T09:03:33;8.20;;;4.05;;
77722;SDS011;67811;42.656;23.394;2023-04-25T09:05:59;6.80;;;4.82;;
77722;SDS011;67811;42.656;23.394;2023-04-25T09:08:24;7.38;;;4.32;;
77722;SDS011;67811;42.656;23.394;2023-04-25T09:10:49;5.22;;;4.38;;
77722;SDS011;67811;42.656;23.394;2023-04-25T09:13:20;10.30;;;4.40;;
77722;SDS011;67811;42.656;23.394;2023-04-25T09:15:51;6.43;;;4.40;;
77722;SDS011;67811;42.656;23.394;2023-04-25T09:20:49;6.95;;;4.22;;
77722;SDS011;67811;42.656;23.394;2023-04-25T09:23:14;8.90;;;3.75;;
77722;SDS011;67811;42.656;23.394;2023-04-25T09:25:40;7.03;;;3.60;;
77722;SDS011;67811;42.656;23.394;2023-04-25T09:28:05;5.43;;;3.95;;
77722;SDS011;67811;42.656;23.394;2023-04-25T09:30:35;7.03;;;3.50;;
77722;SDS011;67811;42.656;23.394;2023-04-25T09:33:05;5.05;;;3.90;;
77722;SDS011;67811;42.656;23.394;2023-04-25T09:35:38;3.80;;;3.22;;
77722;SDS011;67811;42.656;23.394;2023-04-25T09:38:09;5.60;;;3.03;;
77722;SDS011;67811;42.656;23.394;2023-04-25T09:40:39;4.90;;;3.40;;
77722;SDS011;67811;42.656;23.394;2023-04-25T09:43:18;4.68;;;3.40;;
77722;SDS011;67811;42.656;23.394;2023-04-25T09:45:44;6.18;;;3.63;;
77722;SDS011;67811;42.656;23.394;2023-04-25T09:48:09;5.85;;;2.97;;
77722;SDS011;67811;42.656;23.394;2023-04-25T09:50:35;5.45;;;3.65;;
77722;SDS011;67811;42.656;23.394;2023-04-25T09:53:04;4.97;;;2.95;;
77722;SDS011;67811;42.656;23.394;2023-04-25T09:55:30;6.25;;;3.97;;
77722;SDS011;67811;42.656;23.394;2023-04-25T09:57:57;4.90;;;3.47;;
77722;SDS011;67811;42.656;23.394;2023-04-25T10:00:28;4.85;;;2.90;;
77722;SDS011;67811;42.656;23.394;2023-04-25T10:02:54;4.40;;;2.65;;
77722;SDS011;67811;42.656;23.394;2023-04-25T10:05:22;6.40;;;3.53;;
77722;SDS011;67811;42.656;23.394;2023-04-25T10:07:48;7.00;;;3.78;;
77722;SDS011;67811;42.656;23.394;2023-04-25T10:10:14;4.13;;;2.50;;
77722;SDS011;67811;42.656;23.394;2023-04-25T10:12:40;8.60;;;2.75;;
77722;SDS011;67811;42.656;23.394;2023-04-25T10:15:06;8.80;;;3.35;;
77722;SDS011;67811;42.656;23.394;2023-04-25T10:17:33;5.32;;;3.00;;
77722;SDS011;67811;42.656;23.394;2023-04-25T10:20:02;8.38;;;4.03;;
77722;SDS011;67811;42.656;23.394;2023-04-25T10:22:32;6.65;;;3.00;;
77722;SDS011;67811;42.656;23.394;2023-04-25T10:25:00;15.60;;;3.67;;
77722;SDS011;67811;42.656;23.394;2023-04-25T10:27:29;7.07;;;3.17;;
77722;SDS011;67811;42.656;23.394;2023-04-25T10:30:06;4.68;;;3.00;;
77722;SDS011;67811;42.656;23.394;2023-04-25T10:32:33;8.18;;;4.15;;
77722;SDS011;67811;42.656;23.394;2023-04-25T10:35:13;8.80;;;3.78;;
77722;SDS011;67811;42.656;23.394;2023-04-25T10:40:29;5.57;;;4.18;;
77722;SDS011;67811;42.656;23.394;2023-04-25T10:42:55;6.43;;;3.90;;
77722;SDS011;67811;42.656;23.394;2023-04-25T10:45:20;5.13;;;2.85;;
77722;SDS011;67811;42.656;23.394;2023-04-25T10:47:46;6.55;;;3.25;;
77722;SDS011;67811;42.656;23.394;2023-04-25T10:50:11;3.95;;;2.58;;
77722;SDS011;67811;42.656;23.394;2023-04-25T10:52:39;4.70;;;2.85;;
77722;SDS011;67811;42.656;23.394;2023-04-25T10:55:05;2.42;;;1.40;;
77722;SDS011;67811;42.656;23.394;2023-04-25T11:00:22;2.28;;;1.33;;
77722;SDS011;67811;42.656;23.394;2023-04-25T11:02:52;5.55;;;2.40;;
77722;SDS011;67811;42.656;23.394;2023-04-25T11:05:20;5.00;;;1.35;;
77722;SDS011;67811;42.656;23.394;2023-04-25T11:10:12;4.10;;;2.33;;
77722;SDS011;67811;42.656;23.394;2023-04-25T11:12:38;3.25;;;1.52;;
77722;SDS011;67811;42.656;23.394;2023-04-25T11:15:04;4.18;;;2.17;;
77722;SDS011;67811;42.656;23.394;2023-04-25T11:17:31;3.85;;;1.58;;
77722;SDS011;67811;42.656;23.394;2023-04-25T11:19:57;8.38;;;1.88;;
77722;SDS011;67811;42.656;23.394;2023-04-25T11:22:22;3.33;;;1.13;;
77722;SDS011;67811;42.656;23.394;2023-04-25T11:24:48;2.80;;;1.40;;
77722;SDS011;67811;42.656;23.394;2023-04-25T11:27:13;3.47;;;2.13;;
77722;SDS011;67811;42.656;23.394;2023-04-25T11:29:39;5.10;;;1.88;;
77722;SDS011;67811;42.656;23.394;2023-04-25T11:32:05;2.17;;;1.40;;
77722;SDS011;67811;42.656;23.394;2023-04-25T11:34:31;2.05;;;1.27;;
77722;SDS011;67811;42.656;23.394;2023-04-25T11:36:57;4.90;;;1.80;;
77722;SDS011;67811;42.656;23.394;2023-04-25T11:39:26;4.78;;;1.70;;
77722;SDS011;67811;42.656;23.394;2023-04-25T11:41:52;4.38;;;1.80;;
77722;SDS011;67811;42.656;23.394;2023-04-25T11:44:18;2.47;;;1.40;;
77722;SDS011;67811;42.656;23.394;2023-04-25T11:46:45;4.03;;;1.45;;
77722;SDS011;67811;42.656;23.394;2023-04-25T11:49:10;6.85;;;2.20;;
77722;SDS011;67811;42.656;23.394;2023-04-25T11:51:43;3.35;;;1.85;;
77722;SDS011;67811;42.656;23.394;2023-04-25T11:54:10;4.43;;;1.55;;
77722;SDS011;67811;42.656;23.394;2023-04-25T11:56:36;4.22;;;1.48;;
77722;SDS011;67811;42.656;23.394;2023-04-25T11:59:02;2.50;;;1.20;;
77722;SDS011;67811;42.656;23.394;2023-04-25T12:01:30;3.10;;;1.60;;
77722;SDS011;67811;42.656;23.394;2023-04-25T12:04:09;1.40;;;0.70;;
77722;SDS011;67811;42.656;23.394;2023-04-25T12:06:43;1.48;;;0.88;;
77722;SDS011;67811;42.656;23.394;2023-04-25T12:09:10;2.65;;;0.80;;
77722;SDS011;67811;42.656;23.394;2023-04-25T12:11:43;1.77;;;1.00;;
77722;SDS011;67811;42.656;23.394;2023-04-25T12:16:47;2.33;;;1.02;;
77722;SDS011;67811;42.656;23.394;2023-04-25T12:19:14;1.52;;;0.40;;
77722;SDS011;67811;42.656;23.394;2023-04-25T12:21:40;1.40;;;0.80;;
77722;SDS011;67811;42.656;23.394;2023-04-25T12:24:09;0.65;;;0.40;;
77722;SDS011;67811;42.656;23.394;2023-04-25T12:26:53;0.75;;;0.50;;
77722;SDS011;67811;42.656;23.394;2023-04-25T12:29:26;1.42;;;0.55;;
77722;SDS011;67811;42.656;23.394;2023-04-25T12:31:53;0.60;;;0.52;;
77722;SDS011;67811;42.656;23.394;2023-04-25T12:34:19;1.27;;;0.60;;
77722;SDS011;67811;42.656;23.394;2023-04-25T12:36:45;1.20;;;0.60;;
77722;SDS011;67811;42.656;23.394;2023-04-25T12:39:18;0.70;;;0.60;;
77722;SDS011;67811;42.656;23.394;2023-04-25T12:41:44;0.43;;;0.40;;
77722;SDS011;67811;42.656;23.394;2023-04-25T12:44:09;2.42;;;1.02;;
77722;SDS011;67811;42.656;23.394;2023-04-25T12:46:35;1.48;;;0.77;;
77722;SDS011;67811;42.656;23.394;2023-04-25T12:49:01;2.25;;;0.80;;
77722;SDS011;67811;42.656;23.394;2023-04-25T12:51:26;1.77;;;1.13;;
77722;SDS011;67811;42.656;23.394;2023-04-25T12:53:51;2.45;;;1.05;;
77722;SDS011;67811;42.656;23.394;2023-04-25T12:56:17;3.25;;;1.40;;
77722;SDS011;67811;42.656;23.394;2023-04-25T12:58:43;4.03;;;1.33;;
77722;SDS011;67811;42.656;23.394;2023-04-25T13:01:08;3.03;;;1.30;;
77722;SDS011;67811;42.656;23.394;2023-04-25T13:03:33;3.50;;;1.10;;
77722;SDS011;67811;42.656;23.394;2023-04-25T13:05:58;3.28;;;1.10;;
77722;SDS011;67811;42.656;23.394;2023-04-25T13:08:24;1.45;;;0.75;;
77722;SDS011;67811;42.656;23.394;2023-04-25T13:10:49;1.60;;;1.27;;
77722;SDS011;67811;42.656;23.394;2023-04-25T13:13:14;4.88;;;1.33;;
77722;SDS011;67811;42.656;23.394;2023-04-25T13:15:39;5.00;;;1.35;;
77722;SDS011;67811;42.656;23.394;2023-04-25T13:18:05;2.20;;;1.40;;
77722;SDS011;67811;42.656;23.394;2023-04-25T13:20:30;1.55;;;0.82;;
77722;SDS011;67811;42.656;23.394;2023-04-25T13:22:55;0.95;;;0.73;;
77722;SDS011;67811;42.656;23.394;2023-04-25T13:25:21;2.22;;;1.13;;
77722;SDS011;67811;42.656;23.394;2023-04-25T13:27:47;3.53;;;1.60;;
77722;SDS011;67811;42.656;23.394;2023-04-25T13:30:12;5.32;;;2.45;;
77722;SDS011;67811;42.656;23.394;2023-04-25T13:32:38;3.78;;;1.33;;
77722;SDS011;67811;42.656;23.394;2023-04-25T13:35:04;1.48;;;1.23;;
77722;SDS011;67811;42.656;23.394;2023-04-25T13:37:31;1.77;;;1.08;;
77722;SDS011;67811;42.656;23.394;2023-04-25T13:39:56;3.00;;;1.80;;
77722;SDS011;67811;42.656;23.394;2023-04-25T13:42:22;1.45;;;0.98;;
77722;SDS011;67811;42.656;23.394;2023-04-25T13:44:48;2.58;;;1.50;;
77722;SDS011;67811;42.656;23.394;2023-04-25T13:47:13;3.25;;;1.63;;
77722;SDS011;67811;42.656;23.394;2023-04-25T13:49:38;2.35;;;1.50;;
77722;SDS011;67811;42.656;23.394;2023-04-25T13:52:04;2.58;;;1.52;;
77722;SDS011;67811;42.656;23.394;2023-04-25T13:54:29;1.80;;;1.25;;
77722;SDS011;67811;42.656;23.394;2023-04-25T13:56:54;1.80;;;0.98;;
77722;SDS011;67811;42.656;23.394;2023-04-25T13:59:20;1.52;;;1.00;;
77722;SDS011;67811;42.656;23.394;2023-04-25T14:01:45;3.53;;;1.45;;
77722;SDS011;67811;42.656;23.394;2023-04-25T14:04:10;2.42;;;1.30;;
77722;SDS011;67811;42.656;23.394;2023-04-25T14:06:35;2.03;;;1.27;;
77722;SDS011;67811;42.656;23.394;2023-04-25T14:09:01;2.65;;;1.50;;
77722;SDS011;67811;42.656;23.394;2023-04-25T14:11:26;3.60;;;1.20;;
77722;SDS011;67811;42.656;23.394;2023-04-25T14:13:51;1.90;;;1.13;;
77722;SDS011;67811;42.656;23.394;2023-04-25T14:16:17;1.92;;;1.20;;
77722;SDS011;67811;42.656;23.394;2023-04-25T14:18:42;2.03;;;1.35;;
77722;SDS011;67811;42.656;23.394;2023-04-25T14:21:07;2.42;;;1.00;;
77722;SDS011;67811;42.656;23.394;2023-04-25T14:23:33;3.95;;;1.52;;
77722;SDS011;67811;42.656;23.394;2023-04-25T14:25:58;2.17;;;1.10;;
77722;SDS011;67811;42.656;23.394;2023-04-25T14:28:23;1.10;;;0.82;;
77722;SDS011;67811;42.656;23.394;2023-04-25T14:30:48;2.25;;;1.10;;
77722;SDS011;67811;42.656;23.394;2023-04-25T14:33:14;1.05;;;0.90;;
77722;SDS011;67811;42.656;23.394;2023-04-25T14:35:39;1.10;;;0.75;;
77722;SDS011;67811;42.656;23.394;2023-04-25T14:38:05;1.60;;;1.23;;